Time;durP1;ratioP1;P1;durP2;ratioP2;P2;SDS_P1;SDS_P2;PMS_P1;PMS_P2;Temp;Humidity;BMP_temperature;BMP_pressure;BME280_temperature;BME280_humidity;BME280_pressure;Samples;Min_cycle;Max_cycle;Signal;HPM_P1;HPM_P2
2021/08/20 00:00:55;;;;;;;2.40;1.95;;;17.70;99.90;;;;;;5072904;28;20506;-71
2021/08/20 00:03:20;;;;;;;4.65;2.38;;;17.80;99.90;;;;;;5072732;28;20056;-71
2021/08/20 00:05:46;;;;;;;2.30;2.10;;;17.70;99.90;;;;;;5071312;28;20021;-72
2021/08/20 00:08:12;;;;;;;2.53;1.95;;;17.70;99.90;;;;;;5072687;28;20478;-72
2021/08/20 00:10:37;;;;;;;3.38;2.15;;;17.70;99.90;;;;;;5072108;28;20466;-72
2021/08/20 00:13:03;;;;;;;3.47;2.20;;;17.80;99.90;;;;;;5072452;28;20029;-73
2021/08/20 00:15:30;;;;;;;2.50;2.30;;;17.90;99.90;;;;;;5072022;28;20394;-72
2021/08/20 00:17:57;;;;;;;5.90;2.67;;;17.90;99.90;;;;;;5072361;28;20020;-72
2021/08/20 00:20:23;;;;;;;3.53;2.20;;;17.80;99.90;;;;;;5071961;28;20047;-71
2021/08/20 00:22:48;;;;;;;2.92;2.40;;;17.80;99.90;;;;;;5072292;28;20483;-72
2021/08/20 00:25:14;;;;;;;5.75;2.28;;;17.80;99.90;;;;;;5071268;28;20146;-74
2021/08/20 00:27:40;;;;;;;4.43;2.45;;;17.90;99.90;;;;;;5072314;28;20024;-71
2021/08/20 00:30:07;;;;;;;2.67;2.08;;;17.90;99.90;;;;;;5072059;28;20095;-72
2021/08/20 00:32:34;;;;;;;4.15;2.50;;;17.80;99.90;;;;;;5072029;28;20029;-70
2021/08/20 00:35:00;;;;;;;3.38;1.80;;;17.70;99.90;;;;;;5070823;28;20037;-72
2021/08/20 00:37:26;;;;;;;4.05;1.85;;;17.60;99.90;;;;;;5072210;28;20104;-72
2021/08/20 00:39:51;;;;;;;2.03;1.83;;;17.50;99.90;;;;;;5071492;28;20025;-71
2021/08/20 00:42:17;;;;;;;3.80;1.98;;;17.40;99.90;;;;;;5072014;28;20063;-71
2021/08/20 00:44:43;;;;;;;3.63;2.47;;;17.40;99.90;;;;;;5071504;28;20755;-72
2021/08/20 00:47:09;;;;;;;3.83;2.55;;;17.30;99.90;;;;;;5072533;28;20103;-72
2021/08/20 00:49:35;;;;;;;2.55;2.35;;;17.20;99.90;;;;;;5071985;28;20542;-70
2021/08/20 00:52:02;;;;;;;3.17;2.85;;;17.30;99.90;;;;;;5071989;28;20025;-72
2021/08/20 00:54:27;;;;;;;3.60;2.20;;;17.40;99.90;;;;;;5071141;28;20024;-73
2021/08/20 00:56:53;;;;;;;2.45;2.22;;;17.50;99.90;;;;;;5071548;28;20099;-71
2021/08/20 00:59:24;;;;;;;5.10;2.53;;;17.60;99.90;;;;;;5071431;28;20055;-73
2021/08/20 01:01:50;;;;;;;4.22;2.40;;;17.50;99.90;;;;;;5071628;28;20025;-73
2021/08/20 01:04:15;;;;;;;2.17;2.00;;;17.40;99.90;;;;;;5070998;28;20096;-74
2021/08/20 01:06:41;;;;;;;6.43;2.33;;;17.30;99.90;;;;;;5069986;28;20082;-72
2021/08/20 01:09:08;;;;;;;2.88;2.25;;;17.30;99.90;;;;;;5071321;28;20024;-72
2021/08/20 01:11:35;;;;;;;2.28;2.05;;;17.40;99.90;;;;;;5071280;28;20020;-72
2021/08/20 01:14:00;;;;;;;2.22;2.13;;;17.40;99.90;;;;;;5071400;28;20024;-72
2021/08/20 01:16:26;;;;;;;2.42;2.10;;;17.60;99.90;;;;;;5070926;28;20508;-72
2021/08/20 01:18:52;;;;;;;2.35;2.15;;;17.60;99.90;;;;;;5071217;28;20485;-73
2021/08/20 01:21:23;;;;;;;2.30;2.10;;;17.50;99.90;;;;;;5071332;28;20109;-72
2021/08/20 01:23:57;;;;;;;2.47;2.20;;;17.50;99.90;;;;;;5071449;28;20114;-72
2021/08/20 01:26:24;;;;;;;3.47;2.50;;;17.50;99.90;;;;;;5070640;28;20021;-73
2021/08/20 01:28:50;;;;;;;5.05;2.10;;;17.40;99.90;;;;;;5070956;28;20032;-72
2021/08/20 01:31:17;;;;;;;2.97;2.10;;;17.50;99.90;;;;;;5071478;28;20025;-73
2021/08/20 01:33:44;;;;;;;2.85;2.03;;;17.50;99.90;;;;;;5081427;28;20317;-73
2021/08/20 01:36:10;;;;;;;1.80;1.70;;;17.40;99.90;;;;;;5083782;28;20087;-73
2021/08/20 01:38:55;;;;;;;2.17;2.05;;;17.30;99.90;;;;;;5088274;28;20024;-73
2021/08/20 01:41:23;;;;;;;2.83;1.90;;;17.30;99.90;;;;;;5084661;28;20717;-72
2021/08/20 01:43:49;;;;;;;3.85;2.30;;;17.40;99.90;;;;;;5078363;28;20039;-71
2021/08/20 01:46:15;;;;;;;2.55;2.15;;;17.50;99.90;;;;;;5071218;28;20025;-71
2021/08/20 01:48:46;;;;;;;3.38;2.05;;;17.60;99.90;;;;;;5074847;28;20028;-73
2021/08/20 01:51:13;;;;;;;4.18;2.08;;;17.70;99.90;;;;;;5075442;28;20048;-73
2021/08/20 01:53:39;;;;;;;2.72;2.47;;;17.60;99.90;;;;;;5075294;28;20028;-73
2021/08/20 01:56:04;;;;;;;2.80;2.42;;;17.70;99.90;;;;;;5074536;28;20028;-72
2021/08/20 01:58:30;;;;;;;4.25;2.33;;;17.60;99.90;;;;;;5075083;28;20386;-72
2021/08/20 02:00:55;;;;;;;2.42;2.03;;;17.60;99.90;;;;;;5073455;28;20024;-72
2021/08/20 02:03:21;;;;;;;2.88;2.30;;;17.50;99.90;;;;;;5075008;28;20020;-71
2021/08/20 02:05:48;;;;;;;2.53;2.20;;;17.60;99.90;;;;;;5074174;28;20059;-72
2021/08/20 02:08:13;;;;;;;4.63;2.50;;;17.60;99.90;;;;;;5074666;28;20017;-71
2021/08/20 02:10:39;;;;;;;3.83;2.75;;;17.60;99.90;;;;;;5074405;28;20533;-72
2021/08/20 02:13:05;;;;;;;2.80;2.10;;;17.40;99.90;;;;;;5074806;28;20043;-71
2021/08/20 02:15:30;;;;;;;2.25;2.13;;;17.30;99.90;;;;;;5073736;28;20025;-73
2021/08/20 02:17:56;;;;;;;3.85;2.33;;;17.40;99.90;;;;;;5074722;28;20409;-72
2021/08/20 02:20:22;;;;;;;3.55;2.42;;;17.50;99.90;;;;;;5074591;28;20498;-72
2021/08/20 02:22:48;;;;;;;3.20;2.30;;;17.60;99.90;;;;;;5074739;28;20024;-73
2021/08/20 02:25:13;;;;;;;3.28;2.38;;;17.40;99.90;;;;;;5073102;28;20028;-71
2021/08/20 02:27:39;;;;;;;4.70;2.08;;;17.30;99.90;;;;;;5074719;28;20024;-72
2021/08/20 02:30:05;;;;;;;2.97;2.42;;;17.30;99.90;;;;;;5060968;28;20029;-72
2021/08/20 02:32:31;;;;;;;2.65;1.90;;;17.40;99.90;;;;;;5054501;28;20379;-71
2021/08/20 02:34:56;;;;;;;2.65;2.42;;;17.40;99.90;;;;;;5053940;28;20036;-72
2021/08/20 02:37:22;;;;;;;4.25;2.22;;;17.40;99.90;;;;;;5054332;28;20021;-72
2021/08/20 02:39:47;;;;;;;5.38;2.40;;;17.30;99.90;;;;;;5053970;28;20017;-71
2021/08/20 02:42:13;;;;;;;2.78;2.30;;;17.30;99.90;;;;;;5054394;28;20025;-72
2021/08/20 02:44:39;;;;;;;2.58;2.15;;;17.50;99.90;;;;;;5052217;28;20025;-71
2021/08/20 02:47:04;;;;;;;6.05;2.20;;;17.50;99.90;;;;;;5054253;28;20543;-72
2021/08/20 02:49:30;;;;;;;2.42;2.10;;;17.50;99.90;;;;;;5054117;28;20027;-71
2021/08/20 02:51:56;;;;;;;3.53;2.10;;;17.50;99.90;;;;;;5054219;28;20361;-72
2021/08/20 02:54:21;;;;;;;2.78;2.28;;;17.40;99.90;;;;;;5053793;28;20391;-73
2021/08/20 02:56:47;;;;;;;4.38;2.28;;;17.50;99.90;;;;;;5053638;28;20040;-72
2021/08/20 02:59:13;;;;;;;2.25;2.00;;;17.40;99.90;;;;;;5052068;28;20438;-73
2021/08/20 03:01:38;;;;;;;2.70;2.05;;;17.30;99.90;;;;;;5053849;28;20112;-73
2021/08/20 03:04:04;;;;;;;4.78;2.45;;;17.30;99.90;;;;;;5053751;28;20025;-72
2021/08/20 03:06:30;;;;;;;4.05;2.22;;;17.50;99.90;;;;;;5053291;28;20070;-72
2021/08/20 03:08:57;;;;;;;3.70;2.33;;;17.50;99.90;;;;;;5053662;28;20021;-72
2021/08/20 03:11:22;;;;;;;2.25;2.13;;;17.50;99.90;;;;;;5053548;28;20066;-73
2021/08/20 03:13:48;;;;;;;2.78;2.30;;;17.40;99.90;;;;;;5053515;28;20033;-72
2021/08/20 03:16:14;;;;;;;3.92;2.17;;;17.40;99.90;;;;;;5053019;28;20078;-73
2021/08/20 03:18:40;;;;;;;4.90;2.70;;;17.50;99.90;;;;;;5053363;28;20421;-71
2021/08/20 03:21:05;;;;;;;3.20;2.85;;;17.40;99.90;;;;;;5053713;28;20035;-72
2021/08/20 03:23:31;;;;;;;2.78;1.98;;;17.20;99.90;;;;;;5053601;28;20033;-72
2021/08/20 03:25:57;;;;;;;2.33;2.03;;;17.30;99.90;;;;;;5052564;28;20106;-73
2021/08/20 03:28:23;;;;;;;2.40;2.20;;;17.30;99.90;;;;;;5053077;28;20025;-72
2021/08/20 03:30:49;;;;;;;4.10;3.00;;;17.20;99.90;;;;;;5072017;28;20021;-71
2021/08/20 03:33:14;;;;;;;3.92;2.45;;;17.30;99.90;;;;;;5073262;28;20025;-72
2021/08/20 03:35:40;;;;;;;3.33;2.30;;;17.40;99.90;;;;;;5072839;28;20032;-71
2021/08/20 03:38:05;;;;;;;3.30;2.58;;;17.30;99.90;;;;;;5073013;28;20020;-72
2021/08/20 03:40:31;;;;;;;6.22;3.10;;;17.40;99.90;;;;;;5073276;28;20025;-71
2021/08/20 03:42:57;;;;;;;2.83;2.55;;;17.40;99.90;;;;;;5072506;28;20029;-72
2021/08/20 03:45:22;;;;;;;4.18;2.90;;;17.40;99.90;;;;;;5072458;28;20077;-73
2021/08/20 03:47:48;;;;;;;3.17;2.65;;;17.40;99.90;;;;;;5073072;28;20059;-72
2021/08/20 03:50:15;;;;;;;3.55;2.97;;;17.40;99.90;;;;;;5072749;28;20021;-72
2021/08/20 03:52:41;;;;;;;2.42;2.33;;;17.30;99.90;;;;;;5072945;28;20035;-72
2021/08/20 03:55:07;;;;;;;2.83;2.28;;;17.30;99.90;;;;;;5072042;28;20240;-74
2021/08/20 03:57:32;;;;;;;2.92;2.63;;;17.20;99.90;;;;;;5072825;28;20735;-73
2021/08/20 03:59:58;;;;;;;4.47;2.13;;;17.20;99.90;;;;;;5072175;28;20028;-72
2021/08/20 04:02:24;;;;;;;3.53;2.65;;;17.20;99.90;;;;;;5072624;28;20130;-72
2021/08/20 04:04:49;;;;;;;5.07;2.38;;;17.20;99.90;;;;;;5071945;28;20371;-71
2021/08/20 04:07:19;;;;;;;7.25;2.50;;;17.20;99.90;;;;;;5072591;28;20017;-70
2021/08/20 04:09:46;;;;;;;3.17;2.30;;;17.20;99.90;;;;;;5062313;28;20082;-73
2021/08/20 04:12:11;;;;;;;3.10;2.22;;;17.20;99.90;;;;;;5052003;28;20455;-72
2021/08/20 04:14:37;;;;;;;4.68;2.35;;;17.10;99.90;;;;;;5051843;28;20060;-71
2021/08/20 04:17:03;;;;;;;3.45;2.22;;;17.10;99.90;;;;;;5052369;28;20539;-72
2021/08/20 04:19:28;;;;;;;2.10;1.90;;;17.10;99.90;;;;;;5051364;28;20048;-72
2021/08/20 04:21:54;;;;;;;3.38;2.50;;;17.10;99.90;;;;;;5061936;28;20479;-71
2021/08/20 04:24:20;;;;;;;2.88;2.20;;;17.20;99.90;;;;;;5049699;28;20032;-72
2021/08/20 04:26:46;;;;;;;2.65;2.45;;;17.20;99.90;;;;;;5066259;28;20029;-72
2021/08/20 04:29:12;;;;;;;3.08;2.50;;;17.30;99.90;;;;;;5071605;28;20475;-71
2021/08/20 04:31:38;;;;;;;2.75;2.28;;;17.30;99.90;;;;;;5071395;28;20012;-72
2021/08/20 04:34:04;;;;;;;2.55;2.35;;;17.30;99.90;;;;;;5071786;28;20028;-72
2021/08/20 04:36:30;;;;;;;3.78;2.60;;;17.20;99.90;;;;;;5070788;28;20091;-72
2021/08/20 04:38:55;;;;;;;5.18;2.92;;;17.20;99.90;;;;;;5060995;28;20103;-72
2021/08/20 04:41:21;;;;;;;5.10;3.03;;;17.30;99.90;;;;;;5070872;28;20033;-72
2021/08/20 04:43:47;;;;;;;4.75;2.90;;;17.30;99.90;;;;;;5071603;28;20071;-72
2021/08/20 04:46:12;;;;;;;4.18;2.53;;;17.30;99.90;;;;;;5071019;28;20024;-71
2021/08/20 04:48:38;;;;;;;3.95;2.72;;;17.20;99.90;;;;;;5071599;28;20494;-73
2021/08/20 04:51:03;;;;;;;2.63;2.42;;;17.20;99.90;;;;;;5071382;28;20021;-72
2021/08/20 04:53:30;;;;;;;3.53;2.90;;;17.20;99.90;;;;;;5071585;28;20047;-72
2021/08/20 04:55:57;;;;;;;2.95;2.22;;;17.20;99.90;;;;;;5070675;28;20388;-71
2021/08/20 04:58:23;;;;;;;2.78;2.30;;;17.20;99.90;;;;;;5071227;28;20020;-70
2021/08/20 05:00:49;;;;;;;2.53;2.33;;;17.20;99.90;;;;;;5070998;28;20046;-69
2021/08/20 05:03:16;;;;;;;3.95;2.30;;;17.30;99.90;;;;;;5071314;28;20497;-70
2021/08/20 05:05:43;;;;;;;2.72;2.35;;;17.30;99.90;;;;;;5070982;28;20020;-70
2021/08/20 05:08:09;;;;;;;4.68;2.22;;;17.40;99.90;;;;;;5071163;28;20028;-70
2021/08/20 05:10:35;;;;;;;2.50;2.30;;;17.40;99.90;;;;;;5070756;28;20021;-70
2021/08/20 05:13:00;;;;;;;2.72;2.53;;;17.40;99.90;;;;;;5058780;28;20126;-69
2021/08/20 05:15:29;;;;;;;3.13;2.60;;;17.40;99.90;;;;;;5066367;28;20048;-71
2021/08/20 05:17:55;;;;;;;6.50;2.53;;;17.50;99.90;;;;;;5069873;28;20037;-71
2021/08/20 05:20:21;;;;;;;2.78;2.50;;;17.40;99.90;;;;;;5070748;28;20028;-71
2021/08/20 05:22:49;;;;;;;5.10;2.78;;;17.40;99.90;;;;;;5070762;28;20047;-70
2021/08/20 05:25:15;;;;;;;2.40;2.15;;;17.50;99.90;;;;;;5070165;28;20021;-71
2021/08/20 05:27:41;;;;;;;4.65;2.53;;;17.60;99.90;;;;;;5071377;28;20021;-69
2021/08/20 05:30:09;;;;;;;4.10;2.83;;;17.70;99.90;;;;;;5070846;28;20089;-70
2021/08/20 05:32:35;;;;;;;3.90;2.33;;;17.70;99.90;;;;;;5070635;28;20071;-69
2021/08/20 05:35:02;;;;;;;2.72;2.53;;;17.60;99.90;;;;;;5070422;28;20471;-71
2021/08/20 05:37:28;;;;;;;5.85;2.25;;;17.60;99.90;;;;;;5055395;28;20364;-70
2021/08/20 05:39:54;;;;;;;6.75;2.70;;;17.60;99.90;;;;;;5050474;28;20074;-69
2021/08/20 05:42:19;;;;;;;2.70;2.50;;;17.70;99.90;;;;;;5052455;28;20074;-70
2021/08/20 05:44:45;;;;;;;5.15;2.63;;;17.80;99.90;;;;;;5056165;28;20069;-72
2021/08/20 05:47:11;;;;;;;5.68;2.85;;;17.80;99.90;;;;;;5056948;28;20395;-70
2021/08/20 05:49:36;;;;;;;4.85;2.50;;;18.00;99.90;;;;;;5050708;28;20602;-71
2021/08/20 05:52:02;;;;;;;5.30;2.60;;;18.10;99.90;;;;;;5050399;28;20479;-70
2021/08/20 05:54:28;;;;;;;3.20;2.33;;;18.10;99.90;;;;;;5057114;28;20029;-71
2021/08/20 05:56:53;;;;;;;2.92;2.63;;;18.20;99.90;;;;;;5070726;28;20560;-71
2021/08/20 05:59:19;;;;;;;4.28;2.53;;;18.20;99.90;;;;;;5054113;28;20071;-72
2021/08/20 06:01:45;;;;;;;2.72;2.42;;;18.10;99.90;;;;;;5070059;28;20120;-72
2021/08/20 06:04:10;;;;;;;3.20;2.33;;;17.80;99.90;;;;;;5067811;28;20021;-71
2021/08/20 06:06:39;;;;;;;3.80;2.28;;;17.80;99.90;;;;;;5069716;28;20078;-71
2021/08/20 06:09:06;;;;;;;2.30;2.10;;;17.80;99.90;;;;;;5069724;28;20024;-73
2021/08/20 06:11:32;;;;;;;3.72;2.42;;;18.00;99.90;;;;;;5069953;28;20017;-72
2021/08/20 06:13:58;;;;;;;5.47;2.17;;;17.90;99.90;;;;;;5050879;28;20036;-71
2021/08/20 06:16:24;;;;;;;4.38;2.65;;;17.90;99.90;;;;;;5065195;28;20024;-71
2021/08/20 06:18:49;;;;;;;3.55;2.28;;;18.00;99.90;;;;;;5070019;28;20025;-72
2021/08/20 06:21:15;;;;;;;7.75;2.65;;;18.10;99.90;;;;;;5068209;28;20108;-72
2021/08/20 06:23:41;;;;;;;3.45;2.40;;;17.90;99.90;;;;;;5068478;28;20448;-72
2021/08/20 06:26:07;;;;;;;6.72;2.30;;;17.50;99.90;;;;;;5070035;28;20050;-70
2021/08/20 06:28:32;;;;;;;3.15;2.20;;;17.80;99.90;;;;;;5070058;28;20067;-72
2021/08/20 06:31:03;;;;;;;4.32;2.22;;;18.00;99.90;;;;;;5070288;28;20020;-71
2021/08/20 06:33:32;;;;;;;2.92;2.38;;;18.20;99.90;;;;;;5071596;28;20074;-71
2021/08/20 06:35:58;;;;;;;3.28;2.30;;;18.30;99.90;;;;;;5053009;28;20029;-71
2021/08/20 06:38:24;;;;;;;2.50;1.80;;;18.20;99.90;;;;;;5053920;28;20094;-72
2021/08/20 06:40:50;;;;;;;2.97;1.98;;;18.30;99.90;;;;;;5066489;28;20021;-71
2021/08/20 06:43:16;;;;;;;3.45;1.70;;;18.50;99.90;;;;;;5074123;28;20031;-72
2021/08/20 06:45:41;;;;;;;2.22;2.00;;;18.40;99.90;;;;;;5072120;28;20365;-72
2021/08/20 06:48:07;;;;;;;3.80;2.20;;;18.40;99.90;;;;;;5073711;28;20103;-71
2021/08/20 06:50:33;;;;;;;3.67;1.98;;;18.40;99.90;;;;;;5073654;28;20020;-71
2021/08/20 06:52:58;;;;;;;1.95;1.77;;;18.50;99.90;;;;;;5074293;28;20029;-71
2021/08/20 06:55:24;;;;;;;6.47;2.80;;;18.60;99.90;;;;;;5072575;28;20154;-71
2021/08/20 06:57:50;;;;;;;2.97;2.28;;;18.70;99.90;;;;;;5073905;28;20487;-71
2021/08/20 07:00:16;;;;;;;2.25;2.15;;;18.70;99.90;;;;;;5073151;28;20113;-71
2021/08/20 07:02:46;;;;;;;2.65;2.08;;;18.70;99.90;;;;;;5073742;28;20032;-71
2021/08/20 07:05:13;;;;;;;4.97;2.13;;;18.60;99.90;;;;;;5072657;28;20020;-71
2021/08/20 07:07:39;;;;;;;3.33;1.90;;;18.70;99.90;;;;;;5073686;28;20103;-71
2021/08/20 07:10:16;;;;;;;2.60;2.40;;;18.90;99.90;;;;;;5073708;28;20012;-71
2021/08/20 07:12:43;;;;;;;3.63;2.20;;;18.90;99.90;;;;;;5073436;28;20378;-70
2021/08/20 07:15:11;;;;;;;3.33;2.22;;;19.00;99.90;;;;;;5072472;28;20025;-68
2021/08/20 07:17:37;;;;;;;4.13;2.15;;;19.00;99.90;;;;;;5073098;28;20023;-69
2021/08/20 07:20:04;;;;;;;3.58;2.25;;;19.00;99.90;;;;;;5072614;28;20091;-70
2021/08/20 07:22:29;;;;;;;2.83;2.03;;;19.10;99.90;;;;;;5073218;28;20162;-70
2021/08/20 07:24:55;;;;;;;2.53;2.20;;;19.30;99.90;;;;;;5072491;28;20103;-70
2021/08/20 07:27:20;;;;;;;3.00;1.65;;;19.10;99.90;;;;;;5073040;28;20028;-72
2021/08/20 07:29:47;;;;;;;2.58;1.63;;;19.30;99.90;;;;;;5072884;28;20122;-71
2021/08/20 07:32:13;;;;;;;3.53;1.90;;;19.60;99.90;;;;;;5072833;28;20043;-69
2021/08/20 07:34:38;;;;;;;3.72;2.17;;;19.60;99.90;;;;;;5072024;28;20017;-69
2021/08/20 07:37:06;;;;;;;2.42;1.85;;;19.80;99.90;;;;;;5073479;28;20074;-70
2021/08/20 07:39:32;;;;;;;3.72;2.17;;;19.60;99.90;;;;;;5071169;28;20017;-70
2021/08/20 07:41:59;;;;;;;6.13;2.22;;;19.90;99.90;;;;;;5072654;28;20099;-71
2021/08/20 07:44:25;;;;;;;4.30;2.60;;;20.20;99.90;;;;;;5072055;28;20108;-70
2021/08/20 07:46:51;;;;;;;2.47;2.28;;;20.20;99.90;;;;;;5072396;28;20017;-70
2021/08/20 07:49:17;;;;;;;2.72;2.00;;;20.30;99.90;;;;;;5072045;28;20021;-70
2021/08/20 07:51:43;;;;;;;4.22;2.20;;;20.60;99.90;;;;;;5072385;28;20540;-70
2021/08/20 07:54:09;;;;;;;1.77;1.67;;;20.50;99.90;;;;;;5072699;28;20086;-70
2021/08/20 07:56:34;;;;;;;2.08;1.80;;;20.70;99.90;;;;;;5071817;28;20547;-70
2021/08/20 07:59:00;;;;;;;2.10;1.90;;;21.00;99.90;;;;;;5072237;28;20028;-70
2021/08/20 08:01:26;;;;;;;4.88;2.17;;;21.00;99.90;;;;;;5067943;28;20107;-70
2021/08/20 08:03:57;;;;;;;3.65;2.20;;;21.20;99.90;;;;;;5054092;28;20025;-70
2021/08/20 08:06:23;;;;;;;4.10;2.38;;;21.30;99.90;;;;;;5064880;28;20017;-70
2021/08/20 08:08:49;;;;;;;4.32;2.35;;;21.20;99.90;;;;;;5052169;28;20070;-70
2021/08/20 08:11:15;;;;;;;3.45;2.10;;;21.10;99.90;;;;;;5051984;28;20048;-70
2021/08/20 08:13:41;;;;;;;2.05;1.85;;;21.40;99.90;;;;;;5071913;28;20087;-71
2021/08/20 08:16:07;;;;;;;2.88;1.88;;;22.00;99.90;;;;;;5071306;28;20039;-74
2021/08/20 08:18:32;;;;;;;2.63;1.70;;;22.60;99.90;;;;;;5071987;28;20031;-74
2021/08/20 08:20:58;;;;;;;3.22;2.38;;;22.50;99.90;;;;;;5071212;28;20024;-72
2021/08/20 08:23:24;;;;;;;2.10;1.52;;;22.20;99.90;;;;;;5072226;28;20075;-72
2021/08/20 08:25:49;;;;;;;4.53;2.30;;;22.20;99.90;;;;;;5071244;28;20029;-72
2021/08/20 08:28:15;;;;;;;2.40;2.08;;;22.10;99.90;;;;;;5072407;28;20035;-73
2021/08/20 08:30:42;;;;;;;1.98;1.65;;;22.10;99.90;;;;;;5072375;28;20039;-73
2021/08/20 08:33:09;;;;;;;2.83;2.38;;;22.40;99.90;;;;;;5072231;28;20025;-71
2021/08/20 08:35:35;;;;;;;3.72;2.33;;;22.50;99.90;;;;;;5071194;28;20033;-69
2021/08/20 08:38:12;;;;;;;4.57;2.03;;;23.00;99.90;;;;;;5070602;28;20024;-69
2021/08/20 08:40:42;;;;;;;7.03;2.28;;;23.30;99.90;;;;;;5071680;28;20028;-70
2021/08/20 08:43:09;;;;;;;1.98;1.88;;;22.80;99.90;;;;;;5071438;28;20036;-69
2021/08/20 08:45:35;;;;;;;5.40;2.60;;;22.50;99.90;;;;;;5071381;28;20505;-71
2021/08/20 08:48:04;;;;;;;2.40;2.03;;;23.10;99.90;;;;;;5071387;28;20421;-71
2021/08/20 08:50:31;;;;;;;1.85;1.75;;;23.40;99.90;;;;;;5071267;28;20109;-71
2021/08/20 08:52:56;;;;;;;1.70;1.60;;;23.80;99.90;;;;;;5071528;28;20056;-71
2021/08/20 08:55:23;;;;;;;2.65;1.80;;;24.00;99.90;;;;;;5070973;28;20434;-71
2021/08/20 08:57:48;;;;;;;2.10;1.90;;;24.30;99.90;;;;;;5070677;28;20509;-71
2021/08/20 09:00:27;;;;;;;3.15;1.50;;;24.80;99.90;;;;;;5069895;28;20025;-71
2021/08/20 09:02:52;;;;;;;3.53;1.70;;;25.30;99.90;;;;;;5071419;28;20029;-70
2021/08/20 09:05:18;;;;;;;3.10;2.67;;;25.70;99.90;;;;;;5070322;28;20500;-70
2021/08/20 09:07:49;;;;;;;2.50;2.08;;;24.80;99.90;;;;;;5069944;28;20025;-69
2021/08/20 09:10:23;;;;;;;2.17;1.98;;;24.40;99.90;;;;;;5071334;28;20394;-70
2021/08/20 09:12:52;;;;;;;3.63;1.75;;;24.70;99.90;;;;;;5071738;28;20073;-70
2021/08/20 09:15:18;;;;;;;2.33;2.15;;;24.70;99.90;;;;;;5071714;28;20039;-69
2021/08/20 09:17:52;;;;;;;3.38;1.67;;;24.40;99.90;;;;;;5070322;28;20097;-70
2021/08/20 09:20:20;;;;;;;3.58;1.75;;;23.70;99.90;;;;;;5071864;28;20059;-70
2021/08/20 09:22:47;;;;;;;1.90;1.70;;;23.40;99.90;;;;;;5074724;28;20016;-71
2021/08/20 09:25:38;;;;;;;4.55;1.77;;;23.20;99.90;;;;;;5079134;28;20017;-70
2021/08/20 09:28:28;;;;;;;2.25;1.92;;;24.00;99.90;;;;;;5076912;28;20020;-69
2021/08/20 09:30:54;;;;;;;3.25;1.70;;;24.50;99.90;;;;;;5077700;28;20111;-71
2021/08/20 09:33:21;;;;;;;2.55;1.50;;;25.30;99.90;;;;;;5072520;28;20627;-70
2021/08/20 09:36:00;;;;;;;1.80;1.70;;;25.40;99.90;;;;;;5071386;28;20024;-69
2021/08/20 09:38:28;;;;;;;3.15;1.30;;;27.00;99.90;;;;;;5071627;28;20032;-70
2021/08/20 09:40:58;;;;;;;1.75;1.27;;;26.70;99.90;;;;;;5073879;28;20479;-69
2021/08/20 09:43:29;;;;;;;1.90;1.40;;;26.00;99.90;;;;;;5060707;28;20032;-68
2021/08/20 09:46:11;;;;;;;1.38;1.27;;;24.50;99.90;;;;;;5050680;28;20163;-71
2021/08/20 09:48:47;;;;;;;1.65;1.55;;;24.80;99.90;;;;;;5058438;28;20031;-71
2021/08/20 09:51:34;;;;;;;1.83;1.52;;;25.50;99.90;;;;;;5070866;28;20074;-70
2021/08/20 09:54:11;;;;;;;4.38;1.67;;;25.80;99.90;;;;;;5071498;28;20025;-69
2021/08/20 09:56:37;;;;;;;2.90;1.30;;;26.40;99.80;;;;;;5070557;28;20390;-68
2021/08/20 09:59:05;;;;;;;3.80;1.52;;;27.50;99.90;;;;;;5069590;28;20032;-68
2021/08/20 10:01:39;;;;;;;1.70;1.60;;;26.60;99.60;;;;;;5071408;28;20454;-70
2021/08/20 10:04:06;;;;;;;1.45;1.30;;;27.20;99.90;;;;;;5070938;28;20021;-70
2021/08/20 10:06:36;;;;;;;1.40;1.30;;;26.80;98.10;;;;;;5070063;28;20397;-68
2021/08/20 10:09:15;;;;;;;2.30;1.65;;;27.00;98.50;;;;;;5072377;28;20031;-69
2021/08/20 10:11:53;;;;;;;1.70;1.60;;;26.20;98.40;;;;;;5073364;28;20087;-72
2021/08/20 10:14:26;;;;;;;1.70;1.60;;;24.40;99.90;;;;;;5074714;28;20024;-73
2021/08/20 10:16:51;;;;;;;1.60;1.50;;;24.00;99.90;;;;;;5073983;28;20023;-74
2021/08/20 10:19:18;;;;;;;1.70;1.60;;;25.30;99.90;;;;;;5074492;28;20028;-73
2021/08/20 10:21:44;;;;;;;3.10;1.38;;;25.70;99.90;;;;;;5075314;28;20024;-73
2021/08/20 10:24:12;;;;;;;1.63;1.40;;;27.30;99.10;;;;;;5074271;28;20151;-73
2021/08/20 10:26:40;;;;;;;3.85;1.58;;;28.50;97.20;;;;;;5074306;28;20020;-73
2021/08/20 10:29:08;;;;;;;2.35;1.60;;;27.40;97.00;;;;;;5072923;28;20029;-72
2021/08/20 10:31:34;;;;;;;1.35;1.25;;;28.30;99.00;;;;;;5073733;28;20052;-73
2021/08/20 10:34:00;;;;;;;1.52;1.42;;;29.70;95.30;;;;;;5074177;28;20020;-72
2021/08/20 10:36:39;;;;;;;1.88;1.63;;;31.10;95.00;;;;;;5073373;28;20074;-73
2021/08/20 10:39:06;;;;;;;1.30;1.20;;;31.50;94.00;;;;;;5074541;28;20529;-75
2021/08/20 10:41:32;;;;;;;2.35;1.50;;;31.40;91.30;;;;;;5075028;28;20108;-73
2021/08/20 10:44:03;;;;;;;1.48;1.35;;;31.50;91.10;;;;;;5073185;28;20032;-73
2021/08/20 10:46:32;;;;;;;1.23;1.20;;;29.20;92.10;;;;;;5073524;28;20020;-72
2021/08/20 10:49:14;;;;;;;1.50;1.40;;;28.00;93.90;;;;;;5073347;28;20108;-73
2021/08/20 10:51:55;;;;;;;1.60;1.50;;;28.00;93.70;;;;;;5074005;28;20032;-73
2021/08/20 10:54:33;;;;;;;1.67;1.58;;;28.40;93.10;;;;;;5074529;28;20364;-74
2021/08/20 10:57:06;;;;;;;1.95;1.45;;;28.70;94.30;;;;;;5074741;28;20098;-73
2021/08/20 10:59:43;;;;;;;2.67;1.60;;;27.50;91.90;;;;;;5073958;28;20017;-74
2021/08/20 11:02:18;;;;;;;1.60;1.50;;;26.40;93.40;;;;;;5074213;28;20017;-73
2021/08/20 11:05:00;;;;;;;2.92;1.67;;;26.60;93.70;;;;;;5072972;28;20386;-74
2021/08/20 11:07:43;;;;;;;3.15;1.83;;;26.50;94.20;;;;;;5074203;28;20158;-72
2021/08/20 11:10:08;;;;;;;3.58;1.67;;;26.00;95.90;;;;;;5073722;28;20493;-73
2021/08/20 11:12:49;;;;;;;1.92;1.80;;;25.80;96.20;;;;;;5073471;28;20024;-71
2021/08/20 11:15:21;;;;;;;3.28;1.52;;;25.50;95.60;;;;;;5071970;28;20525;-73
2021/08/20 11:17:58;;;;;;;1.65;1.45;;;25.90;96.80;;;;;;5073737;28;20423;-74
2021/08/20 11:20:25;;;;;;;1.55;1.45;;;27.10;97.20;;;;;;5068038;28;20391;-73
2021/08/20 11:23:06;;;;;;;3.50;1.88;;;26.20;94.10;;;;;;5072411;28;20056;-73
2021/08/20 11:25:53;;;;;;;1.90;1.70;;;25.40;97.10;;;;;;5072732;28;20199;-73
2021/08/20 11:28:24;;;;;;;3.88;1.80;;;26.50;96.20;;;;;;5071623;28;20035;-73
2021/08/20 11:30:53;;;;;;;2.22;1.60;;;27.40;94.30;;;;;;5073138;28;20399;-72
2021/08/20 11:33:22;;;;;;;2.97;1.70;;;26.70;93.20;;;;;;5073095;28;20029;-73
2021/08/20 11:35:50;;;;;;;2.63;1.45;;;26.90;95.10;;;;;;5072165;28;20029;-73
2021/08/20 11:38:27;;;;;;;2.00;1.40;;;28.10;95.40;;;;;;5067404;28;20024;-72
2021/08/20 11:40:55;;;;;;;1.90;1.70;;;28.40;91.90;;;;;;5073378;28;20028;-71
2021/08/20 11:43:22;;;;;;;1.85;1.73;;;28.10;93.80;;;;;;5073135;28;20035;-72
2021/08/20 11:45:54;;;;;;;2.13;1.50;;;29.30;91.90;;;;;;5072232;28;20472;-70
2021/08/20 11:48:20;;;;;;;2.25;1.70;;;29.10;90.10;;;;;;5072649;28;20017;-73
2021/08/20 11:50:47;;;;;;;4.60;1.70;;;28.80;91.10;;;;;;5072570;28;20032;-71
2021/08/20 11:53:22;;;;;;;3.35;1.42;;;29.60;92.90;;;;;;5072662;28;20025;-70
2021/08/20 11:55:49;;;;;;;1.60;1.50;;;31.00;89.50;;;;;;5072089;28;20036;-72
2021/08/20 11:58:25;;;;;;;1.95;1.85;;;30.50;85.10;;;;;;5072838;28;20027;-70
2021/08/20 12:00:51;;;;;;;1.40;1.30;;;28.70;87.50;;;;;;5072347;28;20027;-72
2021/08/20 12:03:17;;;;;;;3.13;1.77;;;27.90;87.90;;;;;;5072351;28;20036;-72
2021/08/20 12:05:42;;;;;;;1.80;1.70;;;27.30;90.40;;;;;;5071256;28;20467;-72
2021/08/20 12:08:18;;;;;;;1.83;1.60;;;27.40;90.80;;;;;;5062444;28;20033;-72
2021/08/20 12:10:50;;;;;;;2.00;1.80;;;27.40;90.40;;;;;;5051403;28;20029;-71
2021/08/20 12:13:16;;;;;;;1.88;1.77;;;27.10;91.70;;;;;;5053015;28;20039;-70
2021/08/20 12:15:42;;;;;;;1.65;1.55;;;28.10;91.20;;;;;;5051928;28;20462;-72
2021/08/20 12:18:27;;;;;;;2.30;2.13;;;28.40;88.70;;;;;;5052326;28;20501;-71
2021/08/20 12:20:55;;;;;;;2.22;1.65;;;29.20;92.60;;;;;;5062264;28;20025;-72
2021/08/20 12:23:22;;;;;;;2.65;1.83;;;29.60;88.10;;;;;;5070823;28;20039;-72
2021/08/20 12:25:48;;;;;;;1.77;1.67;;;30.00;87.30;;;;;;5062800;28;20020;-72
2021/08/20 12:28:18;;;;;;;2.35;1.80;;;30.20;85.10;;;;;;5063115;28;20035;-71
2021/08/20 12:30:46;;;;;;;2.38;1.48;;;30.40;87.00;;;;;;5065451;28;20043;-68
2021/08/20 12:33:12;;;;;;;1.83;1.73;;;30.80;86.60;;;;;;5067062;28;20028;-68
2021/08/20 12:35:48;;;;;;;4.55;1.70;;;30.30;85.80;;;;;;5059536;28;20032;-69
2021/08/20 12:38:21;;;;;;;1.67;1.58;;;30.00;83.60;;;;;;5061671;28;20027;-68
2021/08/20 12:40:47;;;;;;;1.75;1.60;;;30.20;87.70;;;;;;5061420;28;20372;-68
2021/08/20 12:43:23;;;;;;;3.20;1.70;;;30.50;81.50;;;;;;5061613;28;20031;-68
2021/08/20 12:46:13;;;;;;;1.67;1.58;;;30.40;85.50;;;;;;5059730;28;20104;-68
2021/08/20 12:48:54;;;;;;;1.60;1.50;;;30.40;79.90;;;;;;5059768;28;20016;-69
2021/08/20 12:51:21;;;;;;;1.88;1.67;;;30.20;84.20;;;;;;5058343;28;20166;-68